createdAt,value
2022-12-24T00:00:25.199Z,16.27
2022-12-24T00:00:47.985Z,16.95
2022-12-24T00:01:10.863Z,16.33
2022-12-24T00:01:33.746Z,16.48
2022-12-24T00:01:56.456Z,16.45
2022-12-24T00:02:19.450Z,16.67
2022-12-24T00:02:42.609Z,16.60
2022-12-24T00:03:07.130Z,16.55
2022-12-24T00:03:30.342Z,16.55
2022-12-24T00:03:53.726Z,16.48
2022-12-24T00:04:16.528Z,16.55
2022-12-24T00:04:39.372Z,16.38
2022-12-24T00:05:02.376Z,17.20
2022-12-24T00:05:25.125Z,15.85
2022-12-24T00:05:47.767Z,15.80
2022-12-24T00:06:17.730Z,15.57
2022-12-24T00:06:40.561Z,16.25
2022-12-24T00:07:03.378Z,16.27
2022-12-24T00:07:26.181Z,15.95
2022-12-24T00:07:48.920Z,16.02
2022-12-24T00:08:11.688Z,17.45
2022-12-24T00:08:34.419Z,16.38
2022-12-24T00:08:57.149Z,16.67
2022-12-24T00:09:19.889Z,15.63
2022-12-24T00:09:42.704Z,16.38
2022-12-24T00:10:06.889Z,15.80
2022-12-24T00:10:29.785Z,16.30
2022-12-24T00:10:53.670Z,16.10
2022-12-24T00:11:16.476Z,17.58
2022-12-24T00:11:39.247Z,17.52
2022-12-24T00:12:02.070Z,16.65
2022-12-24T00:12:24.825Z,17.58
2022-12-24T00:12:47.515Z,17.45
2022-12-24T00:13:10.279Z,16.67
2022-12-24T00:13:32.970Z,16.65
2022-12-24T00:13:55.713Z,16.05
2022-12-24T00:14:18.451Z,16.55
2022-12-24T00:14:41.236Z,15.77
2022-12-24T00:15:04.339Z,16.25
2022-12-24T00:15:27.146Z,16.50
2022-12-24T00:15:52.981Z,17.38
2022-12-24T00:16:16.060Z,16.60
2022-12-24T00:16:39.042Z,16.20
2022-12-24T00:17:04.524Z,16.58
2022-12-24T00:17:27.321Z,17.25
2022-12-24T00:17:50.062Z,17.35
2022-12-24T00:18:14.337Z,17.08
2022-12-24T00:18:43.312Z,16.95
2022-12-24T00:19:08.385Z,17.45
2022-12-24T00:19:31.260Z,17.83
2022-12-24T00:19:54.085Z,17.40
2022-12-24T00:20:17.103Z,17.52
2022-12-24T00:20:39.888Z,17.33
2022-12-24T00:21:04.190Z,17.45
2022-12-24T00:21:27.017Z,17.58
2022-12-24T00:21:49.759Z,17.48
2022-12-24T00:22:12.562Z,17.70
2022-12-24T00:22:35.398Z,17.50
2022-12-24T00:22:58.177Z,17.55
2022-12-24T00:23:21.083Z,17.65
2022-12-24T00:23:44.160Z,18.10
2022-12-24T00:24:07.366Z,18.02
2022-12-24T00:24:30.088Z,17.27
2022-12-24T00:24:52.955Z,17.30
2022-12-24T00:25:16.068Z,17.83
2022-12-24T00:25:38.923Z,18.13
2022-12-24T00:26:01.747Z,17.15
2022-12-24T00:26:24.533Z,17.05
2022-12-24T00:26:47.301Z,16.67
2022-12-24T00:27:12.401Z,16.50
2022-12-24T00:27:35.209Z,15.98
2022-12-24T00:27:58.304Z,16.77
2022-12-24T00:28:21.086Z,16.20
2022-12-24T00:28:43.855Z,16.63
2022-12-24T00:29:06.731Z,16.27
2022-12-24T00:29:29.517Z,16.50
2022-12-24T00:29:52.210Z,16.42
2022-12-24T00:30:15.153Z,16.00
2022-12-24T00:30:39.287Z,16.38
2022-12-24T00:31:08.387Z,16.50
2022-12-24T00:31:31.228Z,17.08
2022-12-24T00:31:54.060Z,16.70
2022-12-24T00:32:16.848Z,16.42
2022-12-24T00:32:39.686Z,16.55
2022-12-24T00:33:02.512Z,16.42
2022-12-24T00:33:26.861Z,16.25
2022-12-24T00:33:49.776Z,15.82
2022-12-24T00:34:12.630Z,16.27
2022-12-24T00:34:35.508Z,16.85
2022-12-24T00:34:58.228Z,16.67
2022-12-24T00:35:21.117Z,17.40
2022-12-24T00:35:43.871Z,16.85
2022-12-24T00:36:08.021Z,16.80
2022-12-24T00:36:30.768Z,16.38
2022-12-24T00:36:53.587Z,16.55
2022-12-24T00:37:16.329Z,16.25
2022-12-24T00:37:39.121Z,16.48
2022-12-24T00:38:03.946Z,16.65
2022-12-24T00:38:26.705Z,16.60
2022-12-24T00:38:49.463Z,16.55
2022-12-24T00:39:12.222Z,16.15
2022-12-24T00:39:35.086Z,16.55
2022-12-24T00:39:57.875Z,16.17
2022-12-24T00:40:20.646Z,16.67
2022-12-24T00:40:43.445Z,16.52
2022-12-24T00:41:25.072Z,16.45
2022-12-24T00:41:49.406Z,16.02
2022-12-24T00:42:12.267Z,16.85
2022-12-24T00:42:35.025Z,17.52
2022-12-24T00:42:57.765Z,17.27
2022-12-24T00:43:20.570Z,17.02
2022-12-24T00:43:43.290Z,17.20
2022-12-24T00:44:07.285Z,17.15
2022-12-24T00:44:30.091Z,16.98
2022-12-24T00:44:52.830Z,16.55
2022-12-24T00:45:15.723Z,16.77
2022-12-24T00:45:38.435Z,17.17
2022-12-24T00:46:01.347Z,16.80
2022-12-24T00:46:24.203Z,16.48
2022-12-24T00:46:47.108Z,16.70
2022-12-24T00:47:12.339Z,17.10
2022-12-24T00:47:35.151Z,16.38
2022-12-24T00:47:57.929Z,17.00
2022-12-24T00:48:20.697Z,17.02
2022-12-24T00:48:44.836Z,17.08
2022-12-24T00:49:07.547Z,16.60
2022-12-24T00:49:30.315Z,16.33
2022-12-24T00:49:53.071Z,16.50
2022-12-24T00:50:15.863Z,16.70
2022-12-24T00:50:38.610Z,16.48
2022-12-24T00:51:01.678Z,16.63
2022-12-24T00:51:24.800Z,16.08
2022-12-24T00:51:47.771Z,16.42
2022-12-24T00:52:10.520Z,17.20
2022-12-24T00:52:33.252Z,16.90
2022-12-24T00:52:58.410Z,17.33
2022-12-24T00:53:21.227Z,16.92
2022-12-24T00:53:44.131Z,16.70
2022-12-24T00:54:09.629Z,16.73
2022-12-24T00:54:32.337Z,16.30
2022-12-24T00:54:54.995Z,16.80
2022-12-24T00:55:17.870Z,16.33
2022-12-24T00:55:40.679Z,16.35
2022-12-24T00:56:03.447Z,16.38
2022-12-24T00:56:26.263Z,16.42
2022-12-24T00:56:49.047Z,16.85
2022-12-24T00:57:11.855Z,17.55
2022-12-24T00:57:34.595Z,17.90
2022-12-24T00:57:57.346Z,18.08
2022-12-24T00:58:20.187Z,18.38
2022-12-24T00:58:42.979Z,17.55
2022-12-24T00:59:05.750Z,17.75
2022-12-24T00:59:28.645Z,16.98
2022-12-24T00:59:51.411Z,17.45
2022-12-24T01:00:17.532Z,17.48
2022-12-24T01:00:40.350Z,17.08
2022-12-24T01:01:03.363Z,17.05
2022-12-24T01:01:26.331Z,17.08
2022-12-24T01:01:49.583Z,16.70
2022-12-24T01:02:12.494Z,17.38
2022-12-24T01:02:35.632Z,17.60
2022-12-24T01:02:58.825Z,17.00
2022-12-24T01:03:21.841Z,16.60
2022-12-24T01:03:46.225Z,16.63
2022-12-24T01:04:27.607Z,16.95
2022-12-24T01:05:09.161Z,16.50
2022-12-24T01:05:32.070Z,16.73
2022-12-24T01:05:55.035Z,17.08
2022-12-24T01:06:18.641Z,16.67
2022-12-24T01:06:41.441Z,16.00
2022-12-24T01:07:04.474Z,16.08
2022-12-24T01:07:27.491Z,16.13
2022-12-24T01:07:50.263Z,17.80
2022-12-24T01:08:13.021Z,17.65
2022-12-24T01:08:35.961Z,17.50
2022-12-24T01:08:58.742Z,17.05
2022-12-24T01:09:21.551Z,17.27
2022-12-24T01:09:44.370Z,17.10
2022-12-24T01:10:08.381Z,17.17
2022-12-24T01:10:31.184Z,17.08
2022-12-24T01:10:53.971Z,16.92
2022-12-24T01:11:16.930Z,16.73
2022-12-24T01:11:39.756Z,17.33
2022-12-24T01:12:02.578Z,17.08
2022-12-24T01:12:25.780Z,17.02
2022-12-24T01:12:48.640Z,17.38
2022-12-24T01:13:11.361Z,17.73
2022-12-24T01:13:34.084Z,17.67
2022-12-24T01:13:56.828Z,17.10
2022-12-24T01:14:22.009Z,17.00
2022-12-24T01:14:44.792Z,17.05
2022-12-24T01:15:08.622Z,17.10
2022-12-24T01:15:31.447Z,17.38
2022-12-24T01:15:54.424Z,17.50
2022-12-24T01:16:18.753Z,17.15
2022-12-24T01:16:41.846Z,17.60
2022-12-24T01:17:05.716Z,17.30
2022-12-24T01:17:28.530Z,17.30
2022-12-24T01:17:51.262Z,17.40
2022-12-24T01:18:14.022Z,17.15
2022-12-24T01:18:36.809Z,17.13
2022-12-24T01:19:01.116Z,17.58
2022-12-24T01:19:24.008Z,18.10
2022-12-24T01:19:46.751Z,18.33
2022-12-24T01:20:14.246Z,17.95
2022-12-24T01:20:37.005Z,17.83
2022-12-24T01:21:01.455Z,18.10
2022-12-24T01:21:24.160Z,18.50
2022-12-24T01:21:47.050Z,18.65
2022-12-24T01:22:09.775Z,18.23
2022-12-24T01:22:32.555Z,18.73
2022-12-24T01:22:55.875Z,18.48
2022-12-24T01:23:18.597Z,18.45
2022-12-24T01:23:41.383Z,18.60
2022-12-24T01:24:04.525Z,18.48
2022-12-24T01:24:27.236Z,17.42
2022-12-24T01:24:50.069Z,17.25
2022-12-24T01:25:12.838Z,17.70
2022-12-24T01:25:37.303Z,17.98
2022-12-24T01:26:00.841Z,17.95
2022-12-24T01:26:23.587Z,18.55
2022-12-24T01:26:46.359Z,18.77
2022-12-24T01:27:09.292Z,17.17
2022-12-24T01:27:33.352Z,17.75
2022-12-24T01:27:56.071Z,18.02
2022-12-24T01:28:21.895Z,17.85
2022-12-24T01:28:44.646Z,17.98
2022-12-24T01:29:07.456Z,17.52
2022-12-24T01:29:30.398Z,17.00
2022-12-24T01:29:53.192Z,17.25
2022-12-24T01:30:16.181Z,18.02
2022-12-24T01:30:38.913Z,18.50
2022-12-24T01:31:01.739Z,18.92
2022-12-24T01:31:24.795Z,19.83
2022-12-24T01:31:47.972Z,20.17
2022-12-24T01:32:10.705Z,20.08
2022-12-24T01:32:33.449Z,19.83
2022-12-24T01:32:58.447Z,20.13
2022-12-24T01:33:21.190Z,20.30
2022-12-24T01:33:44.050Z,19.85
2022-12-24T01:34:08.239Z,20.73
2022-12-24T01:34:31.174Z,20.48
2022-12-24T01:34:53.977Z,20.15
2022-12-24T01:35:17.044Z,19.77
2022-12-24T01:35:40.686Z,20.17
2022-12-24T01:36:03.681Z,21.75
2022-12-24T01:36:26.479Z,21.40
2022-12-24T01:36:49.185Z,21.10
2022-12-24T01:37:13.052Z,21.75
2022-12-24T01:37:35.895Z,21.58
2022-12-24T01:37:58.597Z,21.98
2022-12-24T01:38:21.322Z,22.00
2022-12-24T01:38:44.208Z,21.35
2022-12-24T01:39:06.985Z,21.92
2022-12-24T01:39:29.870Z,21.77
2022-12-24T01:40:12.592Z,21.42
2022-12-24T01:40:53.770Z,21.35
2022-12-24T01:41:35.706Z,21.27
2022-12-24T01:42:14.266Z,20.40
2022-12-24T01:42:55.632Z,21.05
2022-12-24T01:43:25.361Z,20.92
2022-12-24T01:43:48.099Z,19.98
2022-12-24T01:44:33.238Z,19.67
2022-12-24T01:45:35.469Z,19.92
2022-12-24T01:45:58.580Z,19.95
2022-12-24T01:46:23.504Z,20.08
2022-12-24T01:46:46.535Z,19.60
2022-12-24T01:47:12.010Z,20.00
2022-12-24T01:47:34.731Z,19.83
2022-12-24T01:47:57.538Z,19.38
2022-12-24T01:48:23.694Z,19.40
2022-12-24T01:48:47.341Z,19.17
2022-12-24T01:49:12.075Z,19.08
2022-12-24T01:49:35.027Z,18.92
2022-12-24T01:49:59.066Z,18.35
2022-12-24T01:50:21.925Z,19.15
2022-12-24T01:50:44.700Z,18.33
2022-12-24T01:51:11.522Z,18.42
2022-12-24T01:51:38.422Z,18.42
2022-12-24T01:52:03.302Z,18.33
2022-12-24T01:52:28.708Z,19.75
2022-12-24T01:52:51.467Z,18.98
2022-12-24T01:53:15.010Z,19.33
2022-12-24T01:53:37.966Z,19.23
2022-12-24T01:54:06.262Z,19.63
2022-12-24T01:54:30.411Z,19.00
2022-12-24T01:54:54.170Z,18.63
2022-12-24T01:55:17.960Z,18.90
2022-12-24T01:55:40.900Z,19.10
2022-12-24T01:56:03.939Z,19.42
2022-12-24T01:56:27.047Z,18.48
2022-12-24T01:56:52.157Z,18.83
2022-12-24T01:57:18.521Z,18.55
2022-12-24T01:57:43.517Z,18.63
2022-12-24T01:58:06.311Z,19.05
2022-12-24T01:58:29.131Z,18.88
2022-12-24T01:58:56.641Z,18.60
2022-12-24T01:59:19.525Z,18.38
2022-12-24T01:59:42.415Z,17.90
2022-12-24T02:00:07.851Z,18.60
2022-12-24T02:00:30.668Z,18.67
2022-12-24T02:00:53.385Z,19.45
2022-12-24T02:01:16.213Z,18.52
2022-12-24T02:01:39.431Z,18.63
2022-12-24T02:02:02.533Z,18.40
2022-12-24T02:02:25.705Z,18.52
2022-12-24T02:02:50.065Z,17.30
2022-12-24T02:03:13.223Z,17.75
2022-12-24T02:03:36.180Z,17.63
2022-12-24T02:03:59.325Z,16.33
2022-12-24T02:04:29.189Z,15.15
2022-12-24T02:04:55.185Z,15.88
2022-12-24T02:05:20.811Z,16.05
2022-12-24T02:05:47.625Z,16.15
2022-12-24T02:06:12.063Z,16.30
2022-12-24T02:06:34.844Z,16.25
2022-12-24T02:06:57.562Z,16.35
2022-12-24T02:07:20.259Z,17.58
2022-12-24T02:07:43.140Z,18.40
2022-12-24T02:08:05.976Z,17.65
2022-12-24T02:08:40.295Z,16.88
2022-12-24T02:09:03.218Z,16.70
2022-12-24T02:09:26.017Z,16.60
2022-12-24T02:09:49.955Z,17.02
2022-12-24T02:10:13.379Z,17.20
2022-12-24T02:10:36.096Z,17.30
2022-12-24T02:10:58.811Z,17.65
2022-12-24T02:11:21.927Z,16.70
2022-12-24T02:11:45.096Z,15.57
2022-12-24T02:12:08.043Z,16.17
2022-12-24T02:12:32.157Z,15.90
2022-12-24T02:12:55.026Z,16.23
2022-12-24T02:13:23.292Z,16.63
2022-12-24T02:13:51.366Z,15.65
2022-12-24T02:14:14.162Z,15.93
2022-12-24T02:14:36.960Z,15.57
2022-12-24T02:14:59.787Z,14.98
2022-12-24T02:15:22.745Z,15.20
2022-12-24T02:15:54.345Z,13.57
2022-12-24T02:16:23.629Z,14.40
2022-12-24T02:16:51.531Z,14.82
2022-12-24T02:17:18.606Z,14.70
2022-12-24T02:17:45.452Z,16.65
2022-12-24T02:18:11.133Z,16.02
2022-12-24T02:18:36.244Z,16.52
2022-12-24T02:19:02.886Z,17.40
2022-12-24T02:19:47.920Z,16.50
2022-12-24T02:20:47.088Z,13.65
2022-12-24T02:21:46.745Z,13.90
2022-12-24T02:22:11.169Z,15.07
2022-12-24T02:22:40.802Z,14.02
2022-12-24T02:23:28.019Z,12.60
2022-12-24T02:24:23.889Z,14.18
2022-12-24T02:25:03.333Z,13.68
2022-12-24T02:25:46.255Z,15.60
2022-12-24T02:26:18.509Z,18.00
2022-12-24T02:27:11.060Z,15.73
2022-12-24T02:27:46.572Z,14.55
2022-12-24T02:28:14.309Z,14.65
2022-12-24T02:28:47.496Z,13.15
2022-12-24T02:29:20.414Z,15.30
2022-12-24T02:30:04.585Z,13.90
2022-12-24T02:30:30.640Z,12.15
2022-12-24T02:30:53.671Z,13.35
2022-12-24T02:31:17.258Z,13.20
2022-12-24T02:31:43.297Z,13.00
2022-12-24T02:32:08.329Z,12.93
2022-12-24T02:32:35.997Z,12.75
2022-12-24T02:33:22.588Z,13.48
2022-12-24T02:33:47.359Z,15.48
2022-12-24T02:34:13.781Z,15.18
2022-12-24T02:34:38.146Z,16.90
2022-12-24T02:35:03.032Z,17.23
2022-12-24T02:35:31.501Z,16.88
2022-12-24T02:35:56.375Z,16.65
2022-12-24T02:36:21.236Z,17.30
2022-12-24T02:36:45.236Z,18.02
2022-12-24T02:37:09.454Z,19.05
2022-12-24T02:37:33.763Z,19.48
2022-12-24T02:37:58.814Z,18.55
2022-12-24T02:38:25.459Z,19.10
2022-12-24T02:38:49.701Z,19.70
2022-12-24T02:39:13.584Z,20.02
2022-12-24T02:39:39.589Z,19.50
2022-12-24T02:40:12.142Z,19.52
2022-12-24T02:40:40.883Z,20.10
2022-12-24T02:41:05.579Z,20.08
2022-12-24T02:41:50.404Z,21.10
2022-12-24T02:42:13.763Z,20.38
2022-12-24T02:42:38.380Z,20.50
2022-12-24T02:43:03.254Z,20.35
2022-12-24T02:43:28.738Z,19.70
2022-12-24T02:43:51.933Z,20.40
2022-12-24T02:44:16.960Z,20.45
2022-12-24T02:44:42.867Z,20.58
2022-12-24T02:45:08.834Z,20.30
2022-12-24T02:45:32.370Z,21.20
2022-12-24T02:45:59.371Z,21.15
2022-12-24T02:46:24.101Z,20.60
2022-12-24T02:46:46.989Z,20.48
2022-12-24T02:47:10.161Z,19.55
2022-12-24T02:47:34.203Z,20.30
2022-12-24T02:47:57.270Z,20.10
2022-12-24T02:48:20.110Z,19.27
2022-12-24T02:48:43.543Z,20.08
2022-12-24T02:49:06.314Z,20.65
2022-12-24T02:49:29.135Z,20.17
2022-12-24T02:49:51.884Z,20.77
2022-12-24T02:50:16.367Z,21.85
2022-12-24T02:50:39.267Z,21.15
2022-12-24T02:51:04.351Z,21.58
2022-12-24T02:51:27.136Z,22.15
2022-12-24T02:51:49.930Z,21.45
2022-12-24T02:52:35.178Z,21.63
2022-12-24T02:52:57.904Z,21.50
2022-12-24T02:53:20.692Z,21.48
2022-12-24T02:53:43.536Z,21.92
2022-12-24T02:54:06.379Z,21.58
2022-12-24T02:54:29.168Z,21.38
2022-12-24T02:54:52.002Z,21.58
2022-12-24T02:55:18.123Z,22.38
2022-12-24T02:55:49.778Z,22.25
2022-12-24T02:56:33.320Z,22.38
2022-12-24T02:57:04.954Z,21.98
2022-12-24T02:57:31.958Z,22.33
2022-12-24T02:58:04.728Z,22.83
2022-12-24T02:58:32.791Z,22.40
2022-12-24T02:59:12.079Z,22.25
2022-12-24T02:59:52.859Z,23.00
2022-12-24T03:00:18.599Z,21.90
2022-12-24T03:00:47.771Z,22.02
2022-12-24T03:01:17.701Z,22.02
2022-12-24T03:01:46.334Z,21.63
2022-12-24T03:02:13.363Z,22.17
2022-12-24T03:02:47.844Z,21.58
2022-12-24T03:03:21.156Z,20.52
2022-12-24T03:04:00.978Z,22.08
2022-12-24T03:04:40.010Z,20.73
2022-12-24T03:05:09.454Z,21.40
2022-12-24T03:05:38.893Z,20.95
2022-12-24T03:06:07.224Z,21.20
2022-12-24T03:06:36.552Z,21.98
2022-12-24T03:07:01.195Z,22.08
2022-12-24T03:07:28.505Z,21.92
2022-12-24T03:07:56.870Z,20.83
2022-12-24T03:08:24.120Z,21.15
2022-12-24T03:08:50.889Z,21.15
2022-12-24T03:09:19.872Z,21.00
2022-12-24T03:09:53.042Z,20.20
2022-12-24T03:10:19.203Z,19.27
2022-12-24T03:10:45.423Z,19.83
2022-12-24T03:11:09.531Z,20.52
2022-12-24T03:11:32.346Z,20.00
2022-12-24T03:11:57.801Z,20.27
2022-12-24T03:12:21.920Z,20.55
2022-12-24T03:12:45.444Z,20.60
2022-12-24T03:13:10.713Z,20.65
2022-12-24T03:13:33.513Z,20.15
2022-12-24T03:13:56.321Z,19.92
2022-12-24T03:14:19.138Z,20.88
2022-12-24T03:14:42.867Z,20.70
2022-12-24T03:15:06.993Z,20.27
2022-12-24T03:15:31.192Z,20.25
2022-12-24T03:15:54.198Z,19.58
2022-12-24T03:16:18.071Z,19.90
2022-12-24T03:16:40.917Z,20.73
2022-12-24T03:17:03.690Z,20.70
2022-12-24T03:17:26.497Z,20.55
2022-12-24T03:17:52.799Z,20.85
2022-12-24T03:18:17.545Z,20.20
2022-12-24T03:18:41.614Z,20.27
2022-12-24T03:19:04.488Z,21.08
2022-12-24T03:19:27.422Z,19.35
2022-12-24T03:19:50.317Z,20.40
2022-12-24T03:20:13.374Z,21.25
2022-12-24T03:20:37.453Z,20.77
2022-12-24T03:21:02.185Z,20.70
2022-12-24T03:21:26.560Z,20.65
2022-12-24T03:21:49.383Z,21.90
2022-12-24T03:22:12.117Z,21.73
2022-12-24T03:22:34.865Z,21.63
2022-12-24T03:22:57.891Z,21.20
2022-12-24T03:23:20.643Z,20.83
2022-12-24T03:23:43.359Z,20.55
2022-12-24T03:24:06.533Z,20.98
2022-12-24T03:24:29.367Z,21.02
2022-12-24T03:24:52.149Z,20.40
2022-12-24T03:25:15.079Z,20.98
2022-12-24T03:25:39.984Z,21.27
2022-12-24T03:26:05.129Z,21.85
2022-12-24T03:26:28.873Z,21.85
2022-12-24T03:26:54.261Z,22.35
2022-12-24T03:27:17.009Z,22.88
2022-12-24T03:27:39.899Z,22.10
2022-12-24T03:28:03.897Z,21.85
2022-12-24T03:28:27.188Z,21.30
2022-12-24T03:28:50.113Z,21.15
2022-12-24T03:29:12.917Z,22.25
2022-12-24T03:29:35.815Z,22.45
2022-12-24T03:29:58.684Z,23.30
2022-12-24T03:30:21.426Z,21.58
2022-12-24T03:30:47.097Z,21.15
2022-12-24T03:31:09.975Z,21.70
2022-12-24T03:31:41.661Z,22.65
2022-12-24T03:32:06.930Z,21.55
2022-12-24T03:32:30.404Z,21.95
2022-12-24T03:32:53.228Z,22.65
2022-12-24T03:33:16.257Z,22.48
2022-12-24T03:33:39.435Z,22.38
2022-12-24T03:34:02.159Z,22.25
2022-12-24T03:34:24.947Z,21.58
2022-12-24T03:34:47.653Z,21.88
2022-12-24T03:35:10.593Z,21.65
2022-12-24T03:35:33.337Z,22.05
2022-12-24T03:35:56.096Z,22.58
2022-12-24T03:36:18.827Z,22.38
2022-12-24T03:36:41.608Z,22.15
2022-12-24T03:37:04.476Z,22.13
2022-12-24T03:37:27.363Z,21.77
2022-12-24T03:37:50.222Z,22.10
2022-12-24T03:38:14.025Z,23.00
2022-12-24T03:38:36.866Z,23.20
2022-12-24T03:38:59.679Z,22.98
2022-12-24T03:39:22.433Z,21.67
2022-12-24T03:39:47.588Z,22.27
2022-12-24T03:40:11.144Z,22.48
2022-12-24T03:40:34.005Z,22.58
2022-12-24T03:41:00.044Z,22.50
2022-12-24T03:41:22.784Z,23.20
2022-12-24T03:41:45.524Z,23.27
2022-12-24T03:42:08.293Z,23.10
2022-12-24T03:42:30.985Z,22.80
2022-12-24T03:42:53.774Z,23.02
2022-12-24T03:43:16.492Z,22.80
2022-12-24T03:43:39.331Z,22.50
2022-12-24T03:44:02.120Z,23.00
2022-12-24T03:44:24.873Z,22.08
2022-12-24T03:44:47.584Z,22.13
2022-12-24T03:45:11.489Z,22.60
2022-12-24T03:45:34.604Z,22.13
2022-12-24T03:45:59.127Z,20.63
2022-12-24T03:46:22.068Z,20.55
2022-12-24T03:46:44.961Z,20.48
2022-12-24T03:47:07.687Z,19.48
2022-12-24T03:47:30.995Z,19.80
2022-12-24T03:47:53.830Z,20.63
2022-12-24T03:48:16.611Z,21.10
2022-12-24T03:48:39.428Z,21.88
2022-12-24T03:49:02.296Z,21.63
2022-12-24T03:49:25.014Z,21.73
2022-12-24T03:49:47.678Z,21.35
2022-12-24T03:50:10.739Z,20.70
2022-12-24T03:50:33.551Z,20.25
2022-12-24T03:50:56.269Z,19.40
2022-12-24T03:51:19.871Z,20.08
2022-12-24T03:51:42.690Z,20.50
2022-12-24T03:52:05.699Z,20.90
2022-12-24T03:52:28.835Z,21.02
2022-12-24T03:52:51.585Z,21.08
2022-12-24T03:53:14.394Z,20.38
2022-12-24T03:53:40.025Z,20.92
2022-12-24T03:54:02.795Z,19.98
2022-12-24T03:54:25.641Z,19.92
2022-12-24T03:54:48.359Z,19.15
2022-12-24T03:55:11.230Z,18.77
2022-12-24T03:55:34.093Z,18.25
2022-12-24T03:55:56.914Z,18.73
2022-12-24T03:56:22.136Z,19.30
2022-12-24T03:56:44.990Z,19.95
2022-12-24T03:57:07.807Z,20.23
2022-12-24T03:57:30.704Z,20.05
2022-12-24T03:57:53.411Z,20.20
2022-12-24T03:58:16.235Z,18.48
2022-12-24T03:58:39.010Z,18.90
2022-12-24T03:59:01.782Z,18.55
2022-12-24T03:59:24.659Z,17.90
2022-12-24T03:59:47.456Z,19.05
2022-12-24T04:00:12.201Z,19.35
2022-12-24T04:00:35.029Z,19.20
2022-12-24T04:00:59.234Z,19.50
2022-12-24T04:01:22.277Z,19.52
2022-12-24T04:01:45.328Z,20.08
2022-12-24T04:02:08.361Z,19.60
2022-12-24T04:02:32.693Z,19.52
2022-12-24T04:02:55.563Z,19.25
2022-12-24T04:03:18.511Z,18.98
2022-12-24T04:03:41.304Z,19.48
2022-12-24T04:04:04.116Z,19.30
2022-12-24T04:04:27.952Z,19.00
2022-12-24T04:04:50.759Z,19.17
2022-12-24T04:05:14.490Z,19.45
2022-12-24T04:05:37.355Z,18.67
2022-12-24T04:06:03.749Z,18.33
2022-12-24T04:06:26.584Z,17.33
2022-12-24T04:06:49.384Z,18.33
2022-12-24T04:07:12.170Z,18.88
2022-12-24T04:07:34.960Z,19.13
2022-12-24T04:07:57.691Z,18.17
2022-12-24T04:08:20.410Z,18.45
2022-12-24T04:08:43.116Z,19.05
2022-12-24T04:09:06.089Z,19.00
2022-12-24T04:09:28.871Z,18.98
2022-12-24T04:09:51.759Z,18.65
2022-12-24T04:10:14.637Z,18.88
2022-12-24T04:10:37.634Z,18.08
2022-12-24T04:11:06.170Z,16.88
2022-12-24T04:11:32.460Z,17.75
2022-12-24T04:11:55.383Z,17.58
2022-12-24T04:12:18.105Z,17.02
2022-12-24T04:12:40.926Z,18.48
2022-12-24T04:13:03.677Z,18.10
2022-12-24T04:13:26.501Z,17.33
2022-12-24T04:13:49.307Z,17.75
2022-12-24T04:14:12.013Z,17.58
2022-12-24T04:14:34.849Z,16.60
2022-12-24T04:14:57.557Z,17.77
2022-12-24T04:15:20.447Z,17.55
2022-12-24T04:15:43.285Z,17.95
2022-12-24T04:16:08.994Z,17.83
2022-12-24T04:16:32.025Z,17.42
2022-12-24T04:16:55.013Z,18.65
2022-12-24T04:17:20.904Z,18.15
2022-12-24T04:17:43.579Z,17.73
2022-12-24T04:18:06.445Z,17.30
2022-12-24T04:18:29.339Z,17.60
2022-12-24T04:18:55.209Z,18.13
2022-12-24T04:19:17.935Z,18.70
2022-12-24T04:19:40.672Z,18.27
2022-12-24T04:20:03.611Z,17.85
2022-12-24T04:20:26.326Z,18.55
2022-12-24T04:20:50.131Z,17.88
2022-12-24T04:21:12.909Z,16.95
2022-12-24T04:21:35.683Z,17.00
2022-12-24T04:21:58.493Z,17.13
2022-12-24T04:22:21.392Z,17.90
2022-12-24T04:22:44.488Z,18.25
2022-12-24T04:23:07.222Z,18.17
2022-12-24T04:23:31.811Z,18.48
2022-12-24T04:23:54.530Z,18.25
2022-12-24T04:24:17.255Z,17.48
2022-12-24T04:24:39.993Z,18.67
2022-12-24T04:25:02.729Z,18.85
2022-12-24T04:25:25.523Z,18.00
2022-12-24T04:25:48.351Z,17.27
2022-12-24T04:26:12.191Z,17.55
2022-12-24T04:26:35.047Z,16.80
2022-12-24T04:26:57.854Z,16.85
2022-12-24T04:27:25.300Z,16.83
2022-12-24T04:27:53.019Z,17.73
2022-12-24T04:28:15.848Z,17.70
2022-12-24T04:28:38.610Z,16.75
2022-12-24T04:29:01.458Z,18.02
2022-12-24T04:29:24.389Z,17.25
2022-12-24T04:29:47.056Z,17.00
2022-12-24T04:30:10.852Z,17.08
2022-12-24T04:30:33.735Z,16.95
2022-12-24T04:30:59.420Z,17.77
2022-12-24T04:31:23.722Z,18.35
2022-12-24T04:31:46.587Z,18.15
2022-12-24T04:32:10.874Z,18.27
2022-12-24T04:32:33.769Z,18.95
2022-12-24T04:32:56.529Z,18.08
2022-12-24T04:33:19.299Z,18.48
2022-12-24T04:33:41.968Z,18.60
2022-12-24T04:34:04.714Z,18.38
2022-12-24T04:34:27.648Z,18.88
2022-12-24T04:34:50.415Z,18.35
2022-12-24T04:35:13.180Z,17.50
2022-12-24T04:35:39.679Z,16.85
2022-12-24T04:36:02.641Z,17.50
2022-12-24T04:36:25.371Z,16.75
2022-12-24T04:36:48.274Z,17.08
2022-12-24T04:37:11.174Z,17.58
2022-12-24T04:37:34.167Z,17.90
2022-12-24T04:37:57.005Z,17.73
2022-12-24T04:38:19.699Z,17.30
2022-12-24T04:38:42.448Z,17.15
2022-12-24T04:39:06.301Z,16.77
2022-12-24T04:39:29.091Z,17.02
2022-12-24T04:39:51.847Z,16.40
2022-12-24T04:40:14.833Z,16.13
2022-12-24T04:40:37.681Z,17.00
2022-12-24T04:41:01.613Z,17.83
2022-12-24T04:41:25.190Z,17.83
2022-12-24T04:41:48.150Z,17.65
2022-12-24T04:42:11.091Z,17.10
2022-12-24T04:42:34.994Z,17.40
2022-12-24T04:42:57.751Z,16.45
2022-12-24T04:43:20.605Z,16.60
2022-12-24T04:43:43.349Z,16.30
2022-12-24T04:44:06.223Z,17.00
2022-12-24T04:44:28.998Z,17.05
2022-12-24T04:44:51.832Z,16.88
2022-12-24T04:45:14.559Z,17.55
2022-12-24T04:45:37.530Z,17.63
2022-12-24T04:46:05.384Z,18.05
2022-12-24T04:46:33.149Z,17.02
2022-12-24T04:46:55.963Z,17.65
2022-12-24T04:47:18.831Z,17.95
2022-12-24T04:47:41.690Z,17.60
2022-12-24T04:48:07.281Z,18.20
2022-12-24T04:48:30.039Z,18.17
2022-12-24T04:48:53.506Z,17.60
2022-12-24T04:49:16.338Z,17.50
2022-12-24T04:49:39.123Z,17.35
2022-12-24T04:50:01.836Z,17.90
2022-12-24T04:50:24.819Z,17.88
2022-12-24T04:50:47.596Z,18.48
2022-12-24T04:51:10.745Z,18.15
2022-12-24T04:51:33.643Z,17.95
2022-12-24T04:51:56.470Z,17.40
2022-12-24T04:52:21.929Z,17.42
2022-12-24T04:52:44.663Z,16.95
2022-12-24T04:53:07.456Z,17.67
2022-12-24T04:53:32.668Z,17.58
2022-12-24T04:53:55.778Z,18.02
2022-12-24T04:54:18.550Z,17.65
2022-12-24T04:54:41.299Z,16.38
2022-12-24T04:55:04.390Z,16.23
2022-12-24T04:55:27.208Z,16.77
2022-12-24T04:55:49.933Z,16.98
2022-12-24T04:56:13.433Z,16.52
2022-12-24T04:56:37.187Z,16.30
2022-12-24T04:57:00.011Z,16.55
2022-12-24T04:57:22.830Z,16.20
2022-12-24T04:57:51.140Z,16.55
2022-12-24T04:58:15.787Z,16.65
2022-12-24T04:58:38.627Z,17.17
2022-12-24T04:59:01.641Z,17.02
2022-12-24T04:59:24.346Z,16.25
2022-12-24T04:59:47.065Z,16.67
2022-12-24T05:00:11.511Z,16.48
2022-12-24T05:00:34.297Z,16.38
2022-12-24T05:00:57.148Z,16.00
2022-12-24T05:01:21.309Z,16.05
2022-12-24T05:01:45.888Z,15.80
2022-12-24T05:02:10.177Z,16.10
2022-12-24T05:02:33.416Z,16.58
2022-12-24T05:02:56.630Z,16.80
2022-12-24T05:03:19.588Z,16.90
2022-12-24T05:03:42.318Z,16.73
2022-12-24T05:04:07.302Z,15.73
2022-12-24T05:04:30.099Z,16.10
2022-12-24T05:04:52.947Z,15.98
2022-12-24T05:05:15.877Z,15.98
2022-12-24T05:05:38.604Z,16.10
2022-12-24T05:06:04.283Z,15.88
2022-12-24T05:06:29.175Z,15.85
2022-12-24T05:06:52.005Z,16.08
2022-12-24T05:07:14.739Z,16.27
2022-12-24T05:07:37.704Z,16.25
2022-12-24T05:08:00.536Z,16.27
2022-12-24T05:08:23.445Z,16.52
2022-12-24T05:08:46.599Z,16.05
2022-12-24T05:09:09.580Z,15.82
2022-12-24T05:09:32.797Z,16.45
2022-12-24T05:09:55.797Z,16.85
2022-12-24T05:10:19.435Z,17.23
2022-12-24T05:10:42.210Z,17.45
2022-12-24T05:11:06.224Z,18.45
2022-12-24T05:11:29.033Z,17.73
2022-12-24T05:11:51.860Z,17.10
2022-12-24T05:12:14.615Z,16.23
2022-12-24T05:12:37.371Z,16.95
2022-12-24T05:13:00.120Z,16.80
2022-12-24T05:13:23.126Z,16.65
2022-12-24T05:13:48.427Z,17.00
2022-12-24T05:14:11.484Z,16.85
2022-12-24T05:14:34.354Z,16.90
2022-12-24T05:14:57.185Z,17.17
2022-12-24T05:15:19.951Z,16.48
2022-12-24T05:15:44.810Z,17.63
2022-12-24T05:16:07.702Z,17.70